Sandy Level, Virginia
Current Conditions -  °F | °C
As of 1:53 PM on Tuesday 21 Oct 2014 (Local Time) from KDAN Reporting Station
Broken Clouds Broken Clouds  
Wind Chill: 72°   Ceiling: 5000
Heat Index: 72°   Visibility: 10mi
Dew Point: 49°   Wind: 13mph
Humidity: 44%   Direction: 330°NNW
Pressure: 29.87"   Gusts: 18mph
Location:  36.96°N, 79.55°W
Report Text: KDAN 211753Z AUTO 33011G16KT 10SM BKN050 22/09 A2987 RMK AO2 SLP106 T02220094 10222 20089 58020
Loading
Personal Weather Stations






























Interactive Weather Map
Tropical Storm Tracking
New forecast layout! Learn more

10-Day Weather Forecast

Advertisements
Track Severe Weather on mobile